Kealia, Hawaii
Current Conditions -  °F | °C
As of 2:53 PM on Tuesday 25 Nov 2014 (Local Time) from PHLI Reporting Station
Broken Clouds Broken Clouds  
Wind Chill: 76°   Ceiling: 5000
Heat Index: 76°   Visibility: 10mi
Dew Point: 56°   Wind: 16mph
Humidity: 50%   Direction: 20°NNE
Pressure: 30.02"   Gusts: NA
Location:  22.09°N, 159.44°W
Report Text: PHLI 260053Z 02014KT 10SM SCT043 BKN050 24/13 A3002 RMK AO2 SLP164 T02440133 $
Loading
Personal Weather Stations






























Interactive Weather Map New forecast layout! Learn more

10-Day Weather Forecast

Advertisements
Track Severe Weather on mobile